createdAt,value
2018-07-07T00:01:22.849Z,13.17
2018-07-07T00:03:54.964Z,16.33
2018-07-07T00:06:27.145Z,13.53
2018-07-07T00:08:59.254Z,18.73
2018-07-07T00:11:31.228Z,13.33
2018-07-07T00:14:03.242Z,10.37
2018-07-07T00:16:36.721Z,15.20
2018-07-07T00:19:09.087Z,23.23
2018-07-07T00:21:41.089Z,10.67
2018-07-07T00:24:13.878Z,15.33
2018-07-07T00:26:45.926Z,17.17
2018-07-07T00:29:17.958Z,19.03
2018-07-07T00:31:49.880Z,26.00
2018-07-07T00:34:22.037Z,31.17
2018-07-07T00:36:55.405Z,29.10
2018-07-07T00:39:27.544Z,26.23
2018-07-07T00:41:59.575Z,31.57
2018-07-07T00:44:31.740Z,26.03
2018-07-07T00:47:10.113Z,24.63
2018-07-07T00:49:42.152Z,16.20
2018-07-07T00:52:14.137Z,16.97
2018-07-07T00:54:46.233Z,19.80
2018-07-07T00:57:19.369Z,14.57
2018-07-07T00:59:51.607Z,19.17
2018-07-07T01:02:24.597Z,17.97
2018-07-07T01:04:57.161Z,30.37
2018-07-07T01:07:33.699Z,21.20
2018-07-07T01:10:05.753Z,20.73
2018-07-07T01:12:37.702Z,21.60
2018-07-07T01:15:09.888Z,28.10
2018-07-07T01:17:42.186Z,22.20
2018-07-07T01:20:14.238Z,22.13
2018-07-07T01:22:46.464Z,37.70
2018-07-07T01:25:21.467Z,54.07
2018-07-07T01:27:53.648Z,59.47
2018-07-07T01:30:26.015Z,69.57
2018-07-07T01:32:59.534Z,57.13
2018-07-07T01:35:31.913Z,32.13
2018-07-07T01:38:07.408Z,26.90
2018-07-07T01:40:44.682Z,20.50
2018-07-07T01:43:18.880Z,23.60
2018-07-07T01:45:50.978Z,21.23
2018-07-07T01:48:23.142Z,20.03
2018-07-07T01:50:55.376Z,18.60
2018-07-07T01:53:27.379Z,21.77
2018-07-07T01:55:59.414Z,17.60
2018-07-07T01:58:32.760Z,15.53
2018-07-07T02:01:05.247Z,15.10
2018-07-07T02:03:37.164Z,20.47
2018-07-07T02:06:09.473Z,20.80
2018-07-07T02:08:43.088Z,15.47
2018-07-07T02:11:15.197Z,25.17
2018-07-07T02:13:47.229Z,18.80
2018-07-07T02:16:20.353Z,25.33
2018-07-07T02:18:52.813Z,17.57
2018-07-07T02:21:26.004Z,25.27
2018-07-07T02:23:58.692Z,16.87
2018-07-07T02:26:30.813Z,15.53
2018-07-07T02:29:02.870Z,18.80
2018-07-07T02:31:34.967Z,20.70
2018-07-07T02:34:06.992Z,22.37
2018-07-07T02:36:39.134Z,22.20
2018-07-07T02:39:12.311Z,31.77
2018-07-07T02:41:44.404Z,29.60
2018-07-07T02:44:17.191Z,24.00
2018-07-07T02:46:49.233Z,23.60
2018-07-07T02:49:22.029Z,28.33
2018-07-07T02:51:54.175Z,33.73
2018-07-07T02:54:26.452Z,30.90
2018-07-07T02:56:59.265Z,31.03
2018-07-07T02:59:33.799Z,33.90
2018-07-07T03:02:05.892Z,68.20
2018-07-07T03:04:37.979Z,112.37
2018-07-07T03:07:10.157Z,137.53
2018-07-07T03:09:45.805Z,90.47
2018-07-07T03:12:17.834Z,64.60
2018-07-07T03:14:49.854Z,44.40
2018-07-07T03:17:22.451Z,48.50
2018-07-07T03:19:55.574Z,35.33
2018-07-07T03:22:27.952Z,37.67
2018-07-07T03:25:01.019Z,28.37
2018-07-07T03:27:33.112Z,32.73
2018-07-07T03:30:05.129Z,28.40
2018-07-07T03:32:38.327Z,28.33
2018-07-07T03:35:11.782Z,33.30
2018-07-07T03:37:43.889Z,30.10
2018-07-07T03:40:48.459Z,35.70
2018-07-07T03:43:21.196Z,32.03
2018-07-07T03:45:53.592Z,36.67
2018-07-07T03:48:48.650Z,28.17
2018-07-07T03:51:20.773Z,39.07
2018-07-07T03:56:43.925Z,37.60
2018-07-07T03:59:15.962Z,29.50
2018-07-07T04:01:49.149Z,33.70
2018-07-07T04:04:21.314Z,31.07
2018-07-07T04:06:53.722Z,27.27
2018-07-07T04:09:26.570Z,29.00
2018-07-07T04:11:58.591Z,34.87
2018-07-07T04:14:30.644Z,26.50
2018-07-07T04:17:02.611Z,24.80
2018-07-07T04:19:36.280Z,30.50
2018-07-07T04:22:09.462Z,26.37
2018-07-07T04:24:41.619Z,25.47
2018-07-07T04:27:13.609Z,29.87
2018-07-07T04:29:45.645Z,27.97
2018-07-07T04:32:17.613Z,25.30
2018-07-07T04:34:49.671Z,26.50
2018-07-07T04:37:21.634Z,26.63
2018-07-07T04:39:53.742Z,26.10
2018-07-07T04:42:25.890Z,28.67
2018-07-07T04:44:58.003Z,23.23
2018-07-07T04:47:29.945Z,27.10
2018-07-07T04:50:02.017Z,29.43
2018-07-07T04:52:33.996Z,31.40
2018-07-07T04:55:07.044Z,23.40
2018-07-07T04:57:38.980Z,30.60
2018-07-07T05:00:11.037Z,35.83
2018-07-07T05:02:43.628Z,34.20
2018-07-07T05:05:15.696Z,30.20
2018-07-07T05:07:48.028Z,27.63
2018-07-07T05:10:20.027Z,25.60
2018-07-07T05:12:52.204Z,28.10
2018-07-07T05:15:24.381Z,24.20
2018-07-07T05:17:56.307Z,22.27
2018-07-07T05:20:28.357Z,24.70
2018-07-07T05:23:01.961Z,30.43
2018-07-07T05:25:34.297Z,33.17
2018-07-07T05:28:06.349Z,42.33
2018-07-07T05:30:38.415Z,41.60
2018-07-07T05:33:10.453Z,23.30
2018-07-07T05:35:42.493Z,27.33
2018-07-07T05:38:14.509Z,26.83
2018-07-07T05:40:46.601Z,37.73
2018-07-07T05:43:18.746Z,32.83
2018-07-07T05:45:50.769Z,27.60
2018-07-07T05:48:22.696Z,25.93
2018-07-07T05:50:54.651Z,23.03
2018-07-07T05:53:26.683Z,28.37
2018-07-07T05:55:58.907Z,29.40
2018-07-07T05:58:30.905Z,23.97
2018-07-07T06:01:03.477Z,29.73
2018-07-07T06:03:36.040Z,38.57
2018-07-07T06:06:08.018Z,26.27
2018-07-07T06:08:40.023Z,25.20
2018-07-07T06:11:12.023Z,24.73
2018-07-07T06:13:43.927Z,32.47
2018-07-07T06:16:15.995Z,24.03
2018-07-07T06:18:47.958Z,35.17
2018-07-07T06:21:20.866Z,26.00
2018-07-07T06:23:53.082Z,21.87
2018-07-07T06:26:26.036Z,32.07
2018-07-07T06:28:58.049Z,33.47
2018-07-07T06:31:30.705Z,35.00
2018-07-07T06:34:02.673Z,32.57
2018-07-07T06:36:34.678Z,27.73
2018-07-07T06:39:07.088Z,34.00
2018-07-07T06:41:39.187Z,21.67
2018-07-07T06:44:11.915Z,37.07
2018-07-07T06:46:43.995Z,30.30
2018-07-07T06:49:15.951Z,24.07
2018-07-07T06:51:47.978Z,25.00
2018-07-07T06:54:20.497Z,24.83
2018-07-07T06:56:52.535Z,23.13
2018-07-07T06:59:24.434Z,19.27
2018-07-07T07:01:56.682Z,23.17
2018-07-07T07:04:30.625Z,20.87
2018-07-07T07:07:02.619Z,20.30
2018-07-07T07:09:34.564Z,22.30
2018-07-07T07:12:06.800Z,18.10
2018-07-07T07:14:38.765Z,18.80
2018-07-07T07:17:10.769Z,18.17
2018-07-07T07:19:42.739Z,14.77
2018-07-07T07:22:14.753Z,21.90
2018-07-07T07:24:46.861Z,22.23
2018-07-07T07:27:18.986Z,13.50
2018-07-07T07:29:50.920Z,17.93
2018-07-07T07:32:22.936Z,14.50
2018-07-07T07:34:54.909Z,18.43
2018-07-07T07:37:26.988Z,17.20
2018-07-07T07:39:58.936Z,25.30
2018-07-07T07:42:31.143Z,19.50
2018-07-07T07:45:03.407Z,14.90
2018-07-07T07:47:35.399Z,16.13
2018-07-07T07:50:07.551Z,24.23
2018-07-07T07:52:39.650Z,20.73
2018-07-07T07:55:11.670Z,21.77
2018-07-07T07:57:43.679Z,19.30
2018-07-07T08:00:15.778Z,17.87
2018-07-07T08:02:48.340Z,21.03
2018-07-07T08:05:22.319Z,21.63
2018-07-07T08:07:54.405Z,25.43
2018-07-07T08:10:26.311Z,28.27
2018-07-07T08:12:58.400Z,21.47
2018-07-07T08:15:30.406Z,20.63
2018-07-07T08:18:02.380Z,26.97
2018-07-07T08:20:34.304Z,28.73
2018-07-07T08:23:06.443Z,30.87
2018-07-07T08:25:38.480Z,31.83
2018-07-07T08:28:10.599Z,25.93
2018-07-07T08:30:42.557Z,18.37
2018-07-07T08:33:14.587Z,27.00
2018-07-07T08:35:46.524Z,23.13
2018-07-07T08:38:20.384Z,25.70
2018-07-07T08:40:52.372Z,30.90
2018-07-07T08:43:24.441Z,25.53
2018-07-07T08:45:56.558Z,24.20
2018-07-07T08:48:28.657Z,20.07
2018-07-07T08:51:00.686Z,29.20
2018-07-07T08:53:32.762Z,22.90
2018-07-07T08:56:04.686Z,28.60
2018-07-07T08:58:36.930Z,22.13
2018-07-07T09:01:08.841Z,21.37
2018-07-07T09:03:41.837Z,20.93
2018-07-07T09:06:14.289Z,30.50
2018-07-07T09:08:46.290Z,29.93
2018-07-07T09:11:18.206Z,36.53
2018-07-07T09:13:50.372Z,29.17
2018-07-07T09:16:22.374Z,28.73
2018-07-07T09:18:54.435Z,30.83
2018-07-07T09:21:26.522Z,26.17
2018-07-07T09:23:58.915Z,29.97
2018-07-07T09:26:31.057Z,21.83
2018-07-07T09:29:03.112Z,23.93
2018-07-07T09:31:35.094Z,22.90
2018-07-07T09:34:07.249Z,24.17
2018-07-07T09:36:39.162Z,26.53
2018-07-07T09:39:11.235Z,30.30
2018-07-07T09:41:43.161Z,26.77
2018-07-07T09:44:15.260Z,28.13
2018-07-07T09:46:48.454Z,24.97
2018-07-07T09:49:20.445Z,28.90
2018-07-07T09:51:52.417Z,29.07
2018-07-07T09:54:24.407Z,25.53
2018-07-07T09:56:56.397Z,21.10
2018-07-07T09:59:28.487Z,30.33
2018-07-07T10:02:00.533Z,33.53
2018-07-07T10:04:33.024Z,25.67
2018-07-07T10:07:05.562Z,28.43
2018-07-07T10:09:37.561Z,22.07
2018-07-07T10:12:09.451Z,23.53
2018-07-07T10:14:41.498Z,24.40
2018-07-07T10:17:13.482Z,23.03
2018-07-07T10:19:45.502Z,24.10
2018-07-07T10:22:17.414Z,24.00
2018-07-07T10:24:49.426Z,26.43
2018-07-07T10:27:21.513Z,25.07
2018-07-07T10:29:53.937Z,25.87
2018-07-07T10:32:25.890Z,32.37
2018-07-07T10:34:58.211Z,16.33
2018-07-07T10:37:30.252Z,25.37
2018-07-07T10:40:02.337Z,21.03
2018-07-07T10:42:34.270Z,25.93
2018-07-07T10:45:06.483Z,29.33
2018-07-07T10:47:46.946Z,22.67
2018-07-07T10:50:18.929Z,25.93
2018-07-07T10:52:50.896Z,29.20
2018-07-07T10:55:23.758Z,27.23
2018-07-07T10:57:55.728Z,23.30
2018-07-07T11:00:28.039Z,22.87
2018-07-07T11:03:00.011Z,33.53
2018-07-07T11:05:32.072Z,30.30
2018-07-07T11:08:04.745Z,23.33
2018-07-07T11:10:36.790Z,16.70
2018-07-07T11:13:08.882Z,19.80
2018-07-07T11:15:41.133Z,26.00
2018-07-07T11:18:13.327Z,27.77
2018-07-07T11:20:45.335Z,22.53
2018-07-07T11:23:17.680Z,45.37
2018-07-07T11:25:49.791Z,24.80
2018-07-07T11:28:22.698Z,21.00
2018-07-07T11:30:54.774Z,22.63
2018-07-07T11:33:26.717Z,23.23
2018-07-07T11:35:58.723Z,24.53
2018-07-07T11:38:30.740Z,26.57
2018-07-07T11:41:03.772Z,25.47
2018-07-07T11:43:36.038Z,25.53
2018-07-07T11:46:08.164Z,27.13
2018-07-07T11:48:41.161Z,24.37
2018-07-07T11:51:13.313Z,31.63
2018-07-07T11:53:45.257Z,30.20
2018-07-07T11:56:17.367Z,31.30
2018-07-07T11:58:49.449Z,24.60
2018-07-07T12:01:21.630Z,31.63
2018-07-07T12:03:53.711Z,23.10
2018-07-07T12:06:25.800Z,30.50
2018-07-07T12:08:59.169Z,31.73
2018-07-07T12:11:31.274Z,56.43
2018-07-07T12:14:03.306Z,21.10
2018-07-07T12:16:36.491Z,27.07
2018-07-07T12:19:08.722Z,19.17
2018-07-07T12:21:40.870Z,30.80
2018-07-07T12:24:12.920Z,16.77
2018-07-07T12:26:45.112Z,17.07
2018-07-07T12:29:17.377Z,17.77
2018-07-07T12:31:50.977Z,25.73
2018-07-07T12:34:23.173Z,25.83
2018-07-07T12:36:55.409Z,31.10
2018-07-07T12:39:27.364Z,36.97
2018-07-07T12:42:00.215Z,40.97
2018-07-07T12:44:32.306Z,28.80
2018-07-07T12:47:04.800Z,24.90
2018-07-07T12:49:36.897Z,23.20
2018-07-07T12:52:09.208Z,16.73
2018-07-07T12:54:41.669Z,21.10
2018-07-07T12:57:13.695Z,19.60
2018-07-07T12:59:45.652Z,21.90
2018-07-07T13:02:19.637Z,24.57
2018-07-07T13:04:51.537Z,19.70
2018-07-07T13:07:23.561Z,21.67
2018-07-07T13:09:56.729Z,20.83
2018-07-07T13:12:29.606Z,15.03
2018-07-07T13:15:01.606Z,24.27
2018-07-07T13:17:33.789Z,22.03
2018-07-07T13:20:05.969Z,19.10
2018-07-07T13:22:38.409Z,28.30
2018-07-07T13:25:10.336Z,26.80
2018-07-07T13:27:43.414Z,22.27
2018-07-07T13:30:16.649Z,15.27
2018-07-07T13:32:50.902Z,31.93
2018-07-07T13:35:22.933Z,21.47
2018-07-07T13:37:59.553Z,27.83
2018-07-07T13:40:36.928Z,21.73
2018-07-07T13:43:16.544Z,23.23
2018-07-07T13:45:53.175Z,21.97
2018-07-07T13:48:28.842Z,18.07
2018-07-07T13:51:03.445Z,29.50
2018-07-07T13:53:40.731Z,33.00
2018-07-07T13:56:20.239Z,22.10
2018-07-07T13:58:59.978Z,28.67
2018-07-07T14:01:38.572Z,31.20
2018-07-07T14:04:18.573Z,26.90
2018-07-07T14:07:02.302Z,26.60
2018-07-07T14:09:37.627Z,25.67
2018-07-07T14:12:13.116Z,27.50
2018-07-07T14:14:57.631Z,19.80
2018-07-07T14:17:32.824Z,20.23
2018-07-07T14:20:09.702Z,29.63
2018-07-07T14:22:42.779Z,18.67
2018-07-07T14:25:24.244Z,24.37
2018-07-07T14:28:02.714Z,26.23
2018-07-07T14:30:39.989Z,37.13
2018-07-07T14:33:16.985Z,20.20
2018-07-07T14:35:53.484Z,20.27
2018-07-07T14:38:35.415Z,28.43
2018-07-07T14:41:18.338Z,26.07
2018-07-07T14:44:00.739Z,36.77
2018-07-07T14:46:37.837Z,22.33
2018-07-07T14:49:14.275Z,24.73
2018-07-07T14:51:46.525Z,40.23
2018-07-07T14:54:18.705Z,33.47
2018-07-07T14:56:50.853Z,25.33
2018-07-07T14:59:22.957Z,31.47
2018-07-07T15:01:56.253Z,33.90
2018-07-07T15:04:28.221Z,29.27
2018-07-07T15:07:01.218Z,30.90
2018-07-07T15:09:33.190Z,35.70
2018-07-07T15:12:05.364Z,29.23
2018-07-07T15:14:38.022Z,48.33
2018-07-07T15:17:10.053Z,32.67
2018-07-07T15:19:43.523Z,35.80
2018-07-07T15:22:15.863Z,34.17
2018-07-07T15:24:48.394Z,24.50
2018-07-07T15:27:20.370Z,33.57
2018-07-07T15:29:52.636Z,37.40
2018-07-07T15:32:25.153Z,35.87
2018-07-07T15:34:58.289Z,34.67
2018-07-07T15:37:32.356Z,40.33
2018-07-07T15:40:04.386Z,36.97
2018-07-07T15:42:36.613Z,29.57
2018-07-07T15:45:09.424Z,45.20
2018-07-07T15:47:44.087Z,32.60
2018-07-07T15:50:16.273Z,37.83
2018-07-07T15:52:48.426Z,37.07
2018-07-07T15:55:22.048Z,48.30
2018-07-07T15:57:54.888Z,36.97
2018-07-07T16:00:27.280Z,29.43
2018-07-07T16:03:00.704Z,31.17
2018-07-07T16:05:33.870Z,46.07
2018-07-07T16:08:07.071Z,36.97
2018-07-07T16:10:39.636Z,29.43
2018-07-07T16:13:13.100Z,36.67
2018-07-07T16:15:46.828Z,36.53
2018-07-07T16:18:18.908Z,23.87
2018-07-07T16:20:52.536Z,25.83
2018-07-07T16:23:24.624Z,33.77
2018-07-07T16:25:56.674Z,29.33
2018-07-07T16:28:28.699Z,55.60
2018-07-07T16:31:01.469Z,42.27
2018-07-07T16:33:43.330Z,32.37
2018-07-07T16:36:17.763Z,41.07
2018-07-07T16:38:50.342Z,36.67
2018-07-07T16:41:22.449Z,48.23
2018-07-07T16:43:55.142Z,29.87
2018-07-07T16:46:30.833Z,34.10
2018-07-07T16:49:04.609Z,44.60
2018-07-07T16:51:40.949Z,29.97
2018-07-07T16:57:03.650Z,94.67
2018-07-07T16:59:37.738Z,34.17
2018-07-07T17:02:11.701Z,58.93
2018-07-07T17:04:44.199Z,41.60
2018-07-07T17:07:19.164Z,41.80
2018-07-07T17:09:56.082Z,56.97
2018-07-07T17:12:30.805Z,39.73
2018-07-07T17:15:14.978Z,37.50
2018-07-07T17:21:11.244Z,37.80
2018-07-07T17:23:53.023Z,38.17
2018-07-07T17:26:26.203Z,45.03
2018-07-07T17:28:59.644Z,35.90
2018-07-07T17:31:32.514Z,69.87
2018-07-07T17:34:06.325Z,38.13
2018-07-07T17:36:44.606Z,59.60
2018-07-07T17:39:18.581Z,35.93
2018-07-07T17:41:54.338Z,40.23
2018-07-07T17:44:26.765Z,41.97
2018-07-07T17:46:59.813Z,42.67
2018-07-07T17:52:14.184Z,37.23
2018-07-07T17:54:48.483Z,42.10
2018-07-07T17:57:28.375Z,35.50
2018-07-07T18:00:01.581Z,44.13
2018-07-07T18:02:45.099Z,39.45
2018-07-07T18:13:45.949Z,40.33
2018-07-07T18:16:22.057Z,40.63
2018-07-07T18:19:00.889Z,52.73
2018-07-07T18:21:41.874Z,42.57
2018-07-07T18:24:20.839Z,41.73
2018-07-07T18:27:09.703Z,53.10
2018-07-07T18:35:22.135Z,58.43
2018-07-07T18:37:55.998Z,41.43
2018-07-07T18:40:30.988Z,41.30
2018-07-07T18:45:50.960Z,37.73
2018-07-07T18:48:35.682Z,30.32
2018-07-07T18:51:20.060Z,43.57
2018-07-07T18:53:53.475Z,31.20
2018-07-07T18:56:41.412Z,45.92
2018-07-07T18:59:25.958Z,49.50
2018-07-07T19:02:11.887Z,40.50
2018-07-07T19:04:56.681Z,38.63
2018-07-07T19:07:37.236Z,38.48
2018-07-07T19:12:54.451Z,40.10
2018-07-07T19:15:29.923Z,41.73
2018-07-07T19:23:40.695Z,44.35
2018-07-07T19:26:17.787Z,56.68
2018-07-07T19:28:51.868Z,40.75
2018-07-07T19:31:25.169Z,49.38
2018-07-07T19:34:01.914Z,45.38
2018-07-07T19:36:38.276Z,58.52
2018-07-07T19:39:10.364Z,42.78
2018-07-07T19:41:42.514Z,39.88
2018-07-07T19:44:14.686Z,34.20
2018-07-07T19:46:46.906Z,41.53
2018-07-07T19:49:19.472Z,45.60
2018-07-07T19:51:51.762Z,48.75
2018-07-07T19:54:23.893Z,49.60
2018-07-07T19:56:55.975Z,37.43
2018-07-07T19:59:28.223Z,34.67
2018-07-07T20:02:01.011Z,45.17
2018-07-07T20:04:34.411Z,51.67
2018-07-07T20:07:06.536Z,39.07
2018-07-07T20:09:39.180Z,48.07
2018-07-07T20:12:11.108Z,54.20
2018-07-07T20:14:43.392Z,44.87
2018-07-07T20:17:16.538Z,41.47
2018-07-07T20:21:04.823Z,52.27
2018-07-07T20:23:36.933Z,41.77
2018-07-07T20:26:09.214Z,40.37
2018-07-07T20:28:45.828Z,43.10
2018-07-07T20:31:21.124Z,40.03
2018-07-07T20:33:53.083Z,47.80
2018-07-07T20:36:25.371Z,38.67
2018-07-07T20:38:57.873Z,53.57
2018-07-07T20:41:30.034Z,43.93
2018-07-07T20:44:02.029Z,37.73
2018-07-07T20:46:34.087Z,51.33
2018-07-07T20:49:06.284Z,41.73
2018-07-07T20:51:39.090Z,47.73
2018-07-07T20:54:11.589Z,52.23
2018-07-07T20:56:43.700Z,41.97
2018-07-07T20:59:15.755Z,35.77
2018-07-07T21:01:48.750Z,40.90
2018-07-07T21:04:20.925Z,52.10
2018-07-07T21:06:53.654Z,36.40
2018-07-07T21:09:25.636Z,43.67
2018-07-07T21:11:58.022Z,43.27
2018-07-07T21:14:31.588Z,40.43
2018-07-07T21:17:03.700Z,39.43
2018-07-07T21:19:35.784Z,43.23
2018-07-07T21:22:08.899Z,57.23
2018-07-07T21:24:40.981Z,44.43
2018-07-07T21:27:13.883Z,49.40
2018-07-07T21:29:45.960Z,48.70
2018-07-07T21:32:18.572Z,38.47
2018-07-07T21:34:50.591Z,46.50
2018-07-07T21:37:22.753Z,48.93
2018-07-07T21:39:54.759Z,46.87
2018-07-07T21:42:26.866Z,48.83
2018-07-07T21:44:58.955Z,47.40
2018-07-07T21:47:31.746Z,37.40
2018-07-07T21:50:03.802Z,41.03
2018-07-07T21:52:44.871Z,45.33
2018-07-07T21:55:16.832Z,54.37
2018-07-07T21:57:53.351Z,33.17
2018-07-07T22:00:30.110Z,44.40
2018-07-07T22:03:06.445Z,55.27
2018-07-07T22:05:42.839Z,54.63
2018-07-07T22:08:19.486Z,49.57
2018-07-07T22:10:51.539Z,59.93
2018-07-07T22:13:26.531Z,58.60
2018-07-07T22:15:58.576Z,47.80
2018-07-07T22:18:30.978Z,30.23
2018-07-07T22:21:12.438Z,37.77
2018-07-07T22:23:44.908Z,46.20
2018-07-07T22:26:17.940Z,47.30
2018-07-07T22:28:50.481Z,49.00
2018-07-07T22:31:22.670Z,40.67
2018-07-07T22:33:55.085Z,41.57
2018-07-07T22:36:31.425Z,43.07
2018-07-07T22:39:03.910Z,47.93
2018-07-07T22:41:45.368Z,42.27
2018-07-07T22:44:17.507Z,36.53
2018-07-07T22:46:51.695Z,42.63
2018-07-07T22:49:24.040Z,40.13
2018-07-07T22:51:56.668Z,58.77
2018-07-07T22:54:59.990Z,38.30
2018-07-07T22:57:32.097Z,40.33
2018-07-07T23:00:04.307Z,43.27
2018-07-07T23:02:36.788Z,48.97
2018-07-07T23:05:22.254Z,46.20
2018-07-07T23:07:54.414Z,51.37
2018-07-07T23:10:26.605Z,49.60
2018-07-07T23:12:58.577Z,45.03
2018-07-07T23:15:31.510Z,48.97
2018-07-07T23:18:03.578Z,47.13
2018-07-07T23:20:35.601Z,52.90
2018-07-07T23:23:09.551Z,43.57
2018-07-07T23:25:41.997Z,47.53
2018-07-07T23:28:14.077Z,54.33
2018-07-07T23:30:46.684Z,50.57
2018-07-07T23:33:18.812Z,60.57
2018-07-07T23:35:51.880Z,44.33
2018-07-07T23:38:23.826Z,40.77
2018-07-07T23:40:55.989Z,41.50
2018-07-07T23:43:28.099Z,47.17
2018-07-07T23:46:00.858Z,49.27
2018-07-07T23:48:32.948Z,39.30
2018-07-07T23:51:05.049Z,47.90
2018-07-07T23:53:37.145Z,43.73
2018-07-07T23:56:09.826Z,42.70
2018-07-07T23:58:41.802Z,39.33
